createdAt,value
2022-11-27T00:01:38.048Z,2.80
2022-11-27T00:04:22.957Z,2.96
2022-11-27T00:07:08.127Z,3.14
2022-11-27T00:09:53.142Z,3.26
2022-11-27T00:12:38.315Z,3.29
2022-11-27T00:15:23.103Z,3.30
2022-11-27T00:18:08.504Z,3.35
2022-11-27T00:20:53.524Z,3.37
2022-11-27T00:23:39.165Z,3.35
2022-11-27T00:26:24.855Z,3.43
2022-11-27T00:29:10.035Z,3.50
2022-11-27T00:31:56.226Z,3.51
2022-11-27T00:34:41.147Z,3.38
2022-11-27T00:37:26.187Z,3.22
2022-11-27T00:40:12.135Z,3.27
2022-11-27T00:42:56.934Z,3.31
2022-11-27T00:45:41.798Z,3.31
2022-11-27T00:48:26.519Z,3.40
2022-11-27T00:51:17.350Z,3.44
2022-11-27T00:54:03.730Z,3.45
2022-11-27T00:56:48.493Z,3.41
2022-11-27T00:59:33.532Z,3.43
2022-11-27T01:02:18.488Z,3.48
2022-11-27T01:05:03.486Z,3.45
2022-11-27T01:07:48.672Z,3.41
2022-11-27T01:10:33.537Z,3.49
2022-11-27T01:13:18.691Z,3.54
2022-11-27T01:16:09.589Z,3.55
2022-11-27T01:18:57.715Z,3.60
2022-11-27T01:21:42.852Z,3.61
2022-11-27T01:24:28.079Z,3.69
2022-11-27T01:27:13.190Z,3.67
2022-11-27T01:29:58.389Z,3.74
2022-11-27T01:32:43.369Z,3.83
2022-11-27T01:35:28.322Z,3.87
2022-11-27T01:38:13.485Z,3.85
2022-11-27T01:41:04.258Z,3.81
2022-11-27T01:43:52.357Z,3.81
2022-11-27T01:46:46.617Z,3.80
2022-11-27T01:49:38.470Z,3.79
2022-11-27T01:52:32.411Z,3.86
2022-11-27T01:55:33.614Z,3.94
2022-11-27T01:58:28.710Z,3.94
2022-11-27T02:01:13.933Z,3.94
2022-11-27T02:04:00.595Z,3.92
2022-11-27T02:06:46.094Z,3.93
2022-11-27T02:09:31.646Z,3.93
2022-11-27T02:12:26.443Z,3.92
2022-11-27T02:15:21.209Z,3.83
2022-11-27T02:18:14.530Z,3.80
2022-11-27T02:21:10.651Z,3.74
2022-11-27T02:24:20.535Z,3.71
2022-11-27T02:27:24.057Z,3.69
2022-11-27T02:30:10.090Z,3.66
2022-11-27T02:32:59.730Z,3.65
2022-11-27T02:35:54.640Z,3.68
2022-11-27T02:38:46.718Z,3.70
2022-11-27T02:41:42.909Z,3.69
2022-11-27T02:44:32.689Z,3.66
2022-11-27T02:47:19.306Z,3.68
2022-11-27T02:50:06.919Z,3.65
2022-11-27T02:52:57.812Z,3.64
2022-11-27T02:55:45.111Z,3.64
2022-11-27T02:58:30.514Z,3.71
2022-11-27T03:01:20.239Z,3.73
2022-11-27T03:04:10.782Z,3.68
2022-11-27T03:07:01.133Z,3.67
2022-11-27T03:09:49.812Z,3.70
2022-11-27T03:12:35.204Z,3.71
2022-11-27T03:15:23.377Z,3.69
2022-11-27T03:18:19.969Z,3.69
2022-11-27T03:21:28.245Z,3.70
2022-11-27T03:24:13.433Z,3.67
2022-11-27T03:26:58.994Z,3.62
2022-11-27T03:29:57.783Z,3.52
2022-11-27T03:32:43.424Z,3.52
2022-11-27T03:35:29.745Z,3.50
2022-11-27T03:38:14.629Z,3.52
2022-11-27T03:41:09.553Z,3.52
2022-11-27T03:44:10.287Z,3.56
2022-11-27T03:47:25.978Z,3.58
2022-11-27T03:50:48.736Z,3.72
2022-11-27T03:53:40.915Z,3.72
2022-11-27T03:56:48.776Z,3.70
2022-11-27T03:59:39.999Z,3.72
2022-11-27T04:02:31.660Z,3.78
2022-11-27T04:05:18.093Z,3.82
2022-11-27T04:08:03.610Z,3.80
2022-11-27T04:10:48.591Z,3.84
2022-11-27T04:13:33.732Z,3.88
2022-11-27T04:16:19.257Z,3.92
2022-11-27T04:19:04.172Z,3.95
2022-11-27T04:21:49.152Z,3.94
2022-11-27T04:24:34.141Z,3.92
2022-11-27T04:27:19.099Z,3.88
2022-11-27T04:30:05.012Z,3.92
2022-11-27T04:32:49.827Z,3.94
2022-11-27T04:35:34.962Z,3.93
2022-11-27T04:38:21.074Z,3.96
2022-11-27T04:41:05.971Z,3.92
2022-11-27T04:43:50.919Z,3.96
2022-11-27T04:46:36.101Z,3.96
2022-11-27T04:49:20.804Z,4.01
2022-11-27T04:52:05.941Z,4.01
2022-11-27T04:54:55.390Z,4.04
2022-11-27T04:57:43.379Z,4.01
2022-11-27T05:00:28.220Z,3.99
2022-11-27T05:03:13.491Z,3.98
2022-11-27T05:05:58.458Z,4.04
2022-11-27T05:08:43.653Z,4.05
2022-11-27T05:11:30.381Z,4.07
2022-11-27T05:14:16.623Z,4.07
2022-11-27T05:17:02.237Z,4.08
2022-11-27T05:19:47.361Z,4.09
2022-11-27T05:22:32.436Z,4.09
2022-11-27T05:25:17.379Z,4.08
2022-11-27T05:28:02.591Z,4.08
2022-11-27T05:30:48.229Z,4.10
2022-11-27T05:33:33.258Z,4.08
2022-11-27T05:36:18.023Z,4.10
2022-11-27T05:39:06.234Z,4.11
2022-11-27T05:41:51.082Z,4.08
2022-11-27T05:44:36.186Z,4.11
2022-11-27T05:47:21.110Z,4.14
2022-11-27T05:50:06.966Z,4.15
2022-11-27T05:52:51.733Z,4.14
2022-11-27T05:55:36.834Z,4.12
2022-11-27T05:58:21.586Z,4.17
2022-11-27T06:01:08.488Z,4.16
2022-11-27T06:03:53.514Z,4.13
2022-11-27T06:06:38.715Z,4.13
2022-11-27T06:09:23.707Z,4.14
2022-11-27T06:12:09.058Z,4.14
2022-11-27T06:14:53.890Z,4.20
2022-11-27T06:17:38.952Z,4.16
2022-11-27T06:20:24.930Z,4.22
2022-11-27T06:23:09.820Z,4.22
2022-11-27T06:25:54.822Z,4.24
2022-11-27T06:28:40.856Z,4.20
2022-11-27T06:31:29.276Z,4.17
2022-11-27T06:34:14.214Z,4.22
2022-11-27T06:36:59.557Z,4.25
2022-11-27T06:39:44.437Z,4.21
2022-11-27T06:42:30.203Z,4.21
2022-11-27T06:45:15.514Z,4.26
2022-11-27T06:48:00.506Z,4.25
2022-11-27T06:50:45.577Z,4.27
2022-11-27T06:53:31.651Z,4.28
2022-11-27T06:56:19.728Z,4.34
2022-11-27T06:59:04.589Z,4.39
2022-11-27T07:01:49.944Z,4.38
2022-11-27T07:04:34.677Z,4.37
2022-11-27T07:07:19.597Z,4.38
2022-11-27T07:10:05.222Z,4.38
2022-11-27T07:12:50.169Z,4.40
2022-11-27T07:15:35.798Z,4.42
2022-11-27T07:18:20.691Z,4.42
2022-11-27T07:21:06.272Z,4.39
2022-11-27T07:23:51.433Z,4.44
2022-11-27T07:26:36.371Z,4.44
2022-11-27T07:29:21.250Z,4.52
2022-11-27T07:32:06.479Z,4.57
2022-11-27T07:34:51.467Z,4.64
2022-11-27T07:37:36.647Z,4.67
2022-11-27T07:40:21.566Z,4.71
2022-11-27T07:43:06.685Z,4.74
2022-11-27T07:45:51.883Z,4.78
2022-11-27T07:48:37.689Z,4.81
2022-11-27T07:51:22.911Z,4.83
2022-11-27T07:54:07.967Z,4.91
2022-11-27T07:56:53.168Z,4.94
2022-11-27T07:59:39.989Z,5.00
2022-11-27T08:02:26.915Z,5.04
2022-11-27T08:05:14.932Z,5.09
2022-11-27T08:08:00.979Z,5.11
2022-11-27T08:10:45.744Z,5.18
2022-11-27T08:13:30.489Z,5.25
2022-11-27T08:16:16.002Z,5.27
2022-11-27T08:19:01.613Z,5.33
2022-11-27T08:21:46.707Z,5.41
2022-11-27T08:24:31.705Z,5.49
2022-11-27T08:27:17.061Z,5.46
2022-11-27T08:30:03.200Z,5.59
2022-11-27T08:32:48.113Z,5.62
2022-11-27T08:35:33.326Z,5.61
2022-11-27T08:38:18.720Z,5.67
2022-11-27T08:41:06.110Z,5.66
2022-11-27T08:43:51.141Z,5.70
2022-11-27T08:46:36.288Z,5.73
2022-11-27T08:49:21.429Z,5.89
2022-11-27T08:52:06.534Z,5.93
2022-11-27T08:54:57.174Z,5.97
2022-11-27T08:57:42.620Z,6.07
2022-11-27T09:00:28.297Z,6.13
2022-11-27T09:03:13.171Z,6.21
2022-11-27T09:05:58.058Z,6.01
2022-11-27T09:08:44.352Z,5.99
2022-11-27T09:11:31.431Z,6.06
2022-11-27T09:14:16.155Z,6.01
2022-11-27T09:17:01.323Z,6.11
2022-11-27T09:19:46.312Z,6.13
2022-11-27T09:22:31.342Z,6.22
2022-11-27T09:25:16.181Z,6.24
2022-11-27T09:28:01.301Z,6.32
2022-11-27T09:30:46.401Z,6.32
2022-11-27T09:33:33.655Z,6.43
2022-11-27T09:36:23.980Z,6.49
2022-11-27T09:39:09.230Z,6.63
2022-11-27T09:42:00.062Z,6.63
2022-11-27T09:44:54.204Z,6.78
2022-11-27T09:48:14.867Z,6.99
2022-11-27T09:51:04.604Z,6.95
2022-11-27T09:53:59.974Z,7.11
2022-11-27T09:56:50.880Z,7.00
2022-11-27T09:59:52.037Z,7.18
2022-11-27T10:02:37.161Z,7.26
2022-11-27T10:05:26.176Z,7.13
2022-11-27T10:08:39.957Z,7.19
2022-11-27T10:11:47.842Z,7.44
2022-11-27T10:14:59.815Z,7.44
2022-11-27T10:17:48.897Z,7.47
2022-11-27T10:20:44.688Z,7.46
2022-11-27T10:23:46.599Z,7.41
2022-11-27T10:26:40.871Z,7.44
2022-11-27T10:29:50.288Z,7.35
2022-11-27T10:35:43.323Z,7.26
2022-11-27T10:38:41.014Z,7.37
2022-11-27T10:41:53.160Z,7.40
2022-11-27T10:44:59.820Z,7.39
2022-11-27T10:47:46.559Z,7.43
2022-11-27T10:50:31.550Z,7.46
2022-11-27T10:53:28.989Z,7.44
2022-11-27T10:56:15.354Z,7.53
2022-11-27T10:59:04.769Z,7.58
2022-11-27T11:01:53.217Z,7.73
2022-11-27T11:04:54.465Z,7.84
2022-11-27T11:07:55.305Z,7.90
2022-11-27T11:10:53.445Z,8.05
2022-11-27T11:13:41.317Z,7.84
2022-11-27T11:16:34.861Z,8.00
2022-11-27T11:19:34.267Z,8.11
2022-11-27T11:22:19.979Z,8.16
2022-11-27T11:25:05.220Z,7.99
2022-11-27T11:27:52.270Z,7.84
2022-11-27T11:30:39.435Z,7.92
2022-11-27T11:33:26.131Z,7.92
2022-11-27T11:36:11.795Z,7.87
2022-11-27T11:38:57.189Z,7.80
2022-11-27T11:41:45.837Z,7.72
2022-11-27T11:44:35.962Z,7.79
2022-11-27T11:47:24.832Z,7.67
2022-11-27T11:50:13.540Z,7.72
2022-11-27T11:53:08.189Z,7.61
2022-11-27T11:56:05.400Z,7.65
2022-11-27T11:58:58.728Z,7.67
2022-11-27T12:02:05.956Z,7.69
2022-11-27T12:05:06.059Z,7.71
2022-11-27T12:08:25.251Z,7.83
2022-11-27T12:11:16.137Z,7.88
2022-11-27T12:14:39.724Z,7.85
2022-11-27T12:17:45.001Z,7.93
2022-11-27T12:20:39.295Z,7.94
2022-11-27T12:23:43.077Z,7.93
2022-11-27T12:26:55.889Z,8.03
2022-11-27T12:29:46.642Z,7.99
2022-11-27T12:32:50.105Z,7.92
2022-11-27T12:35:41.038Z,8.05
2022-11-27T12:38:46.864Z,7.96
2022-11-27T12:41:37.687Z,7.96
2022-11-27T12:44:35.128Z,8.03
2022-11-27T12:47:26.931Z,8.01
2022-11-27T12:50:41.436Z,7.95
2022-11-27T12:53:30.793Z,7.96
2022-11-27T12:56:24.723Z,7.98
2022-11-27T12:59:27.132Z,7.98
2022-11-27T13:02:23.656Z,7.97
2022-11-27T13:05:14.942Z,8.04
2022-11-27T13:08:06.162Z,8.00
2022-11-27T13:10:56.496Z,8.00
2022-11-27T13:13:59.681Z,8.12
2022-11-27T13:17:02.908Z,8.05
2022-11-27T13:19:50.644Z,8.14
2022-11-27T13:22:36.607Z,8.22
2022-11-27T13:25:21.738Z,8.26
2022-11-27T13:28:08.091Z,8.17
2022-11-27T13:30:57.313Z,8.18
2022-11-27T13:33:44.468Z,8.20
2022-11-27T13:36:38.757Z,8.26
2022-11-27T13:39:28.886Z,8.27
2022-11-27T13:42:19.995Z,8.17
2022-11-27T13:45:11.262Z,8.19
2022-11-27T13:47:57.850Z,8.13
2022-11-27T13:50:44.657Z,8.10
2022-11-27T13:53:34.651Z,8.05
2022-11-27T13:56:31.162Z,8.03
2022-11-27T13:59:21.958Z,7.96
2022-11-27T14:02:08.525Z,7.97
2022-11-27T14:04:56.493Z,7.92
2022-11-27T14:07:54.994Z,7.95
2022-11-27T14:10:49.722Z,7.92
2022-11-27T14:13:45.196Z,7.91
2022-11-27T14:16:35.403Z,7.90
2022-11-27T14:19:33.248Z,7.83
2022-11-27T14:22:33.443Z,7.75
2022-11-27T14:25:30.392Z,7.72
2022-11-27T14:28:25.882Z,7.67
2022-11-27T14:31:55.148Z,7.63
2022-11-27T14:34:40.650Z,7.66
2022-11-27T14:37:28.222Z,7.56
2022-11-27T14:40:25.756Z,7.54
2022-11-27T14:43:26.128Z,7.52
2022-11-27T14:46:18.539Z,7.49
2022-11-27T14:49:03.857Z,7.48
2022-11-27T14:51:51.053Z,7.47
2022-11-27T14:54:39.053Z,7.46
2022-11-27T14:57:26.507Z,7.42
2022-11-27T15:00:30.027Z,7.35
2022-11-27T15:03:17.710Z,7.36
2022-11-27T15:06:05.620Z,7.32
2022-11-27T15:09:09.034Z,7.33
2022-11-27T15:11:59.883Z,7.26
2022-11-27T15:14:50.753Z,7.19
2022-11-27T15:17:39.035Z,7.14
2022-11-27T15:20:34.429Z,7.08
2022-11-27T15:23:24.642Z,7.05
2022-11-27T15:26:15.881Z,7.05
2022-11-27T15:29:03.548Z,6.95
2022-11-27T15:31:52.225Z,6.94
2022-11-27T15:34:37.061Z,6.96
2022-11-27T15:37:30.450Z,6.91
2022-11-27T15:40:37.161Z,6.91
2022-11-27T15:43:22.174Z,6.86
2022-11-27T15:46:10.936Z,6.87
2022-11-27T15:48:57.089Z,6.83
2022-11-27T15:51:42.715Z,6.80
2022-11-27T15:54:27.661Z,6.76
2022-11-27T15:57:12.762Z,6.76
2022-11-27T15:59:57.644Z,6.67
2022-11-27T16:02:42.695Z,6.65
2022-11-27T16:05:27.492Z,6.59
2022-11-27T16:08:12.561Z,6.56
2022-11-27T16:11:02.193Z,6.51
2022-11-27T16:13:47.011Z,6.50
2022-11-27T16:16:32.257Z,6.45
2022-11-27T16:19:17.446Z,6.45
2022-11-27T16:22:02.933Z,6.46
2022-11-27T16:24:47.620Z,6.39
2022-11-27T16:27:32.431Z,6.42
2022-11-27T16:30:19.841Z,6.42
2022-11-27T16:33:04.692Z,6.47
2022-11-27T16:35:49.803Z,6.49
2022-11-27T16:38:34.910Z,6.39
2022-11-27T16:41:20.439Z,6.44
2022-11-27T16:44:13.779Z,6.39
2022-11-27T16:46:58.551Z,6.37
2022-11-27T16:49:43.775Z,6.33
2022-11-27T16:52:28.652Z,6.33
2022-11-27T16:55:14.567Z,6.31
2022-11-27T16:57:59.511Z,6.34
2022-11-27T17:00:44.664Z,6.32
2022-11-27T17:03:29.381Z,6.29
2022-11-27T17:06:19.944Z,6.29
2022-11-27T17:09:07.430Z,6.28
2022-11-27T17:11:52.439Z,6.29
2022-11-27T17:14:38.442Z,6.27
2022-11-27T17:17:23.497Z,6.36
2022-11-27T17:20:08.915Z,6.27
2022-11-27T17:22:53.723Z,6.28
2022-11-27T17:25:38.781Z,6.30
2022-11-27T17:28:23.503Z,6.32
2022-11-27T17:31:10.502Z,6.35
2022-11-27T17:33:56.697Z,6.37
2022-11-27T17:36:42.892Z,6.36
2022-11-27T17:39:27.983Z,6.35
2022-11-27T17:42:15.350Z,6.37
2022-11-27T17:45:03.319Z,6.34
2022-11-27T17:47:48.183Z,6.38
2022-11-27T17:50:33.455Z,6.37
2022-11-27T17:53:18.603Z,6.35
2022-11-27T17:56:08.896Z,6.35
2022-11-27T17:58:53.706Z,6.34
2022-11-27T18:01:39.326Z,6.30
2022-11-27T18:04:24.494Z,6.27
2022-11-27T18:07:09.237Z,6.29
2022-11-27T18:09:54.587Z,6.24
2022-11-27T18:12:39.476Z,6.20
2022-11-27T18:15:24.265Z,6.24
2022-11-27T18:18:10.161Z,6.25
2022-11-27T18:20:55.051Z,6.23
2022-11-27T18:24:14.646Z,6.25
2022-11-27T18:29:53.195Z,6.20
2022-11-27T18:32:38.985Z,6.22
2022-11-27T18:35:23.934Z,6.15
2022-11-27T18:38:09.073Z,6.17
2022-11-27T18:40:54.418Z,6.09
2022-11-27T18:43:40.441Z,6.09
2022-11-27T18:46:25.488Z,6.10
2022-11-27T18:49:10.724Z,6.12
2022-11-27T18:51:56.379Z,6.12
2022-11-27T18:54:41.911Z,6.09
2022-11-27T18:57:27.319Z,6.12
2022-11-27T19:00:12.857Z,6.09
2022-11-27T19:02:58.135Z,6.10
2022-11-27T19:05:43.181Z,6.06
2022-11-27T19:08:29.552Z,6.10
2022-11-27T19:11:17.075Z,6.10
2022-11-27T19:14:02.556Z,6.11
2022-11-27T19:16:48.409Z,6.09
2022-11-27T19:19:53.893Z,6.10
2022-11-27T19:22:39.024Z,6.10
2022-11-27T19:25:23.903Z,6.08
2022-11-27T19:28:11.098Z,6.07
2022-11-27T19:30:56.607Z,6.05
2022-11-27T19:33:42.351Z,6.07
2022-11-27T19:36:29.465Z,6.10
2022-11-27T19:39:15.318Z,6.08
2022-11-27T19:42:00.137Z,6.07
2022-11-27T19:44:45.150Z,6.05
2022-11-27T19:47:30.148Z,6.01
2022-11-27T19:50:15.258Z,6.03
2022-11-27T19:53:03.483Z,6.06
2022-11-27T19:55:55.180Z,6.05
2022-11-27T19:58:41.015Z,6.06
2022-11-27T20:01:26.577Z,6.07
2022-11-27T20:04:12.561Z,6.05
2022-11-27T20:06:57.626Z,6.06
2022-11-27T20:09:42.908Z,6.10
2022-11-27T20:12:27.690Z,6.09
2022-11-27T20:15:14.239Z,6.09
2022-11-27T20:17:59.308Z,6.09
2022-11-27T20:20:44.372Z,6.07
2022-11-27T20:23:29.196Z,6.08
2022-11-27T20:26:18.211Z,6.13
2022-11-27T20:29:04.095Z,6.11
2022-11-27T20:31:49.267Z,6.08
2022-11-27T20:34:34.049Z,6.07
2022-11-27T20:37:18.894Z,6.08
2022-11-27T20:40:04.404Z,6.09
2022-11-27T20:42:49.544Z,6.11
2022-11-27T20:45:39.516Z,6.06
2022-11-27T20:48:24.588Z,6.03
2022-11-27T20:51:15.563Z,5.98
2022-11-27T20:54:02.534Z,5.94
2022-11-27T20:56:50.046Z,5.97
2022-11-27T20:59:35.172Z,5.87
2022-11-27T21:02:20.278Z,5.89
2022-11-27T21:05:05.569Z,5.77
2022-11-27T21:07:50.536Z,5.86
2022-11-27T21:10:35.593Z,5.75
2022-11-27T21:13:20.429Z,5.78
2022-11-27T21:16:11.322Z,5.65
2022-11-27T21:19:08.067Z,5.75
2022-11-27T21:21:54.162Z,5.75
2022-11-27T21:24:39.694Z,5.79
2022-11-27T21:27:24.870Z,5.77
2022-11-27T21:30:10.053Z,5.72
2022-11-27T21:32:54.747Z,5.76
2022-11-27T21:35:40.551Z,5.73
2022-11-27T21:38:25.691Z,5.72
2022-11-27T21:41:13.638Z,5.72
2022-11-27T21:44:01.022Z,5.74
2022-11-27T21:46:46.727Z,5.72
2022-11-27T21:49:31.834Z,5.70
2022-11-27T21:52:17.122Z,5.70
2022-11-27T21:55:02.317Z,5.72
2022-11-27T21:57:47.475Z,5.77
2022-11-27T22:00:32.263Z,5.88
2022-11-27T22:03:17.430Z,5.88
2022-11-27T22:06:12.562Z,5.90
2022-11-27T22:08:58.790Z,5.98
2022-11-27T22:11:45.804Z,5.96
2022-11-27T22:14:30.956Z,5.95
2022-11-27T22:17:15.942Z,5.99
2022-11-27T22:20:00.733Z,6.06
2022-11-27T22:22:46.047Z,6.14
2022-11-27T22:25:31.357Z,6.20
2022-11-27T22:28:16.166Z,6.13
2022-11-27T22:31:06.824Z,6.16
2022-11-27T22:33:52.314Z,6.14
2022-11-27T22:36:37.671Z,6.08
2022-11-27T22:39:22.781Z,6.09
2022-11-27T22:42:07.876Z,6.04
2022-11-27T22:44:52.900Z,6.07
2022-11-27T22:47:37.828Z,6.04
2022-11-27T22:50:22.698Z,6.00
2022-11-27T22:53:07.702Z,6.05
2022-11-27T22:55:52.751Z,6.01
2022-11-27T22:58:41.685Z,5.96
2022-11-27T23:01:26.844Z,6.04
2022-11-27T23:04:11.934Z,6.08
2022-11-27T23:06:57.166Z,6.05
2022-11-27T23:09:42.295Z,6.00
2022-11-27T23:12:27.242Z,5.99
2022-11-27T23:15:12.256Z,5.98
2022-11-27T23:17:57.989Z,5.94
2022-11-27T23:20:43.718Z,5.95
2022-11-27T23:23:28.569Z,5.86
2022-11-27T23:26:18.358Z,5.88
2022-11-27T23:29:03.956Z,5.89
2022-11-27T23:31:49.398Z,5.87
2022-11-27T23:34:34.162Z,5.86
2022-11-27T23:37:18.916Z,5.85
2022-11-27T23:40:05.108Z,5.77
2022-11-27T23:42:50.209Z,5.86
2022-11-27T23:45:37.797Z,5.87
2022-11-27T23:48:23.103Z,5.85
2022-11-27T23:51:16.637Z,5.83
2022-11-27T23:54:01.817Z,5.78
2022-11-27T23:56:51.082Z,5.85
2022-11-27T23:59:36.214Z,5.84
